createdAt,value
2018-09-26T00:00:02.910Z,1.90
2018-09-26T00:04:11.235Z,1.73
2018-09-26T00:08:14.869Z,2.00
2018-09-26T00:12:18.533Z,2.00
2018-09-26T00:16:22.205Z,1.70
2018-09-26T00:20:25.806Z,1.77
2018-09-26T00:24:29.499Z,1.60
2018-09-26T00:28:33.212Z,1.73
2018-09-26T00:32:36.880Z,1.70
2018-09-26T00:36:40.517Z,1.73
2018-09-26T00:40:44.136Z,1.87
2018-09-26T00:44:47.828Z,1.37
2018-09-26T00:48:51.497Z,1.70
2018-09-26T00:52:55.142Z,1.40
2018-09-26T00:56:58.789Z,1.77
2018-09-26T01:01:02.444Z,1.30
2018-09-26T01:05:06.212Z,1.50
2018-09-26T01:09:10.655Z,1.37
2018-09-26T01:13:14.309Z,1.47
2018-09-26T01:17:17.969Z,1.63
2018-09-26T01:21:21.651Z,1.63
2018-09-26T01:25:25.324Z,1.30
2018-09-26T01:29:29.865Z,1.43
2018-09-26T01:33:33.548Z,1.30
2018-09-26T01:37:37.207Z,1.50
2018-09-26T01:41:40.836Z,1.53
2018-09-26T01:45:44.496Z,1.50
2018-09-26T01:49:48.147Z,1.50
2018-09-26T01:53:51.805Z,1.37
2018-09-26T01:57:55.555Z,1.80
2018-09-26T02:01:59.354Z,1.43
2018-09-26T02:06:03.001Z,1.37
2018-09-26T02:10:06.806Z,1.70
2018-09-26T02:14:10.477Z,1.60
2018-09-26T02:18:14.163Z,1.63
2018-09-26T02:22:17.964Z,1.70
2018-09-26T02:26:21.620Z,1.73
2018-09-26T02:30:25.289Z,2.10
2018-09-26T02:34:28.964Z,1.50
2018-09-26T02:38:32.629Z,1.60
2018-09-26T02:42:36.301Z,1.80
2018-09-26T02:46:39.960Z,1.70
2018-09-26T02:50:43.634Z,1.40
2018-09-26T02:54:47.293Z,1.40
2018-09-26T02:58:51.038Z,1.40
2018-09-26T03:02:54.661Z,1.30
2018-09-26T03:06:58.353Z,1.20
2018-09-26T03:11:02.069Z,1.50
2018-09-26T03:15:05.692Z,1.00
2018-09-26T03:19:09.344Z,1.17
2018-09-26T03:23:12.978Z,1.10
2018-09-26T03:27:16.635Z,1.50
2018-09-26T03:31:20.304Z,1.40
2018-09-26T03:35:23.983Z,0.90
2018-09-26T03:39:27.721Z,1.20
2018-09-26T03:43:31.346Z,1.00
2018-09-26T03:47:35.084Z,1.10
2018-09-26T03:51:38.738Z,1.40
2018-09-26T03:55:42.392Z,1.00
2018-09-26T03:59:46.129Z,1.20
2018-09-26T04:03:49.766Z,1.30
2018-09-26T04:07:53.532Z,1.97
2018-09-26T04:11:57.184Z,1.13
2018-09-26T04:16:01.433Z,1.17
2018-09-26T04:20:05.407Z,1.30
2018-09-26T04:24:09.131Z,1.60
2018-09-26T04:28:12.883Z,1.57
2018-09-26T04:32:16.623Z,1.10
2018-09-26T04:36:26.816Z,1.30
2018-09-26T04:40:30.960Z,1.37
2018-09-26T04:44:34.646Z,1.33
2018-09-26T04:48:38.404Z,1.13
2018-09-26T04:52:42.106Z,1.00
2018-09-26T04:56:45.825Z,1.43
2018-09-26T05:00:49.732Z,1.30
2018-09-26T05:04:53.369Z,1.10
2018-09-26T05:08:57.109Z,1.17
2018-09-26T05:13:00.765Z,1.07
2018-09-26T05:17:04.444Z,1.30
2018-09-26T05:21:08.140Z,1.27
2018-09-26T05:25:11.779Z,1.30
2018-09-26T05:29:15.472Z,0.97
2018-09-26T05:33:19.153Z,1.33
2018-09-26T05:37:22.833Z,1.30
2018-09-26T05:41:26.543Z,1.37
2018-09-26T05:45:30.256Z,1.23
2018-09-26T05:49:33.929Z,1.40
2018-09-26T05:53:38.113Z,1.43
2018-09-26T05:57:41.824Z,1.10
2018-09-26T06:01:45.534Z,1.50
2018-09-26T06:05:49.217Z,1.40
2018-09-26T06:09:52.906Z,1.20
2018-09-26T06:13:56.680Z,1.20
2018-09-26T06:18:00.344Z,1.10
2018-09-26T06:22:04.040Z,1.30
2018-09-26T06:26:07.753Z,1.10
2018-09-26T06:30:11.489Z,0.80
2018-09-26T06:34:15.208Z,0.87
2018-09-26T06:38:19.005Z,1.30
2018-09-26T06:42:22.697Z,1.40
2018-09-26T06:46:26.415Z,1.10
2018-09-26T06:50:30.400Z,1.37
2018-09-26T06:54:34.152Z,1.33
2018-09-26T06:58:37.884Z,1.17
2018-09-26T07:02:42.026Z,1.23
2018-09-26T07:06:45.716Z,1.20
2018-09-26T07:10:49.369Z,1.13
2018-09-26T07:14:53.071Z,1.07
2018-09-26T07:18:56.752Z,0.90
2018-09-26T07:23:07.013Z,0.97
2018-09-26T07:27:10.681Z,1.13
2018-09-26T07:31:14.355Z,0.70
2018-09-26T07:35:18.048Z,0.80
2018-09-26T07:39:21.740Z,1.20
2018-09-26T07:43:25.488Z,1.10
2018-09-26T07:47:29.167Z,0.90
2018-09-26T07:51:32.794Z,0.70
2018-09-26T07:55:36.477Z,0.90
2018-09-26T07:59:40.241Z,1.00
2018-09-26T08:03:43.928Z,1.00
2018-09-26T08:07:47.792Z,0.83
2018-09-26T08:11:51.466Z,1.07
2018-09-26T08:15:55.160Z,1.10
2018-09-26T08:19:58.896Z,1.30
2018-09-26T08:24:02.737Z,0.90
2018-09-26T08:28:06.399Z,1.00
2018-09-26T08:32:10.100Z,1.20
2018-09-26T08:36:13.757Z,1.27
2018-09-26T08:40:17.437Z,1.13
2018-09-26T08:44:21.134Z,1.10
2018-09-26T08:48:24.803Z,1.40
2018-09-26T08:52:28.428Z,1.20
2018-09-26T08:56:32.164Z,1.13
2018-09-26T09:00:36.887Z,1.27
2018-09-26T09:04:40.587Z,1.00
2018-09-26T09:08:44.263Z,1.23
2018-09-26T09:12:47.916Z,1.27
2018-09-26T09:16:51.615Z,1.33
2018-09-26T09:20:55.281Z,1.00
2018-09-26T09:24:58.947Z,1.33
2018-09-26T09:29:02.627Z,1.20
2018-09-26T09:33:06.324Z,1.30
2018-09-26T09:37:09.990Z,1.00
2018-09-26T09:41:13.687Z,1.47
2018-09-26T09:45:17.416Z,1.50
2018-09-26T09:49:21.096Z,1.10
2018-09-26T09:53:24.831Z,0.90
2018-09-26T09:57:28.456Z,1.60
2018-09-26T10:01:32.124Z,1.50
2018-09-26T10:05:35.791Z,1.43
2018-09-26T10:09:39.459Z,1.80
2018-09-26T10:13:43.412Z,1.33
2018-09-26T10:17:47.046Z,1.40
2018-09-26T10:21:50.724Z,1.03
2018-09-26T10:25:54.396Z,1.67
2018-09-26T10:29:58.061Z,2.43
2018-09-26T10:34:01.760Z,1.50
2018-09-26T10:38:05.462Z,1.77
2018-09-26T10:42:09.112Z,1.50
2018-09-26T10:46:12.804Z,1.73
2018-09-26T10:50:16.534Z,1.37
2018-09-26T10:54:20.148Z,1.73
2018-09-26T10:58:24.168Z,2.07
2018-09-26T11:02:27.866Z,1.60
2018-09-26T11:06:31.556Z,1.77
2018-09-26T11:10:35.220Z,1.23
2018-09-26T11:14:38.845Z,1.80
2018-09-26T11:18:42.652Z,1.40
2018-09-26T11:22:46.268Z,1.40
2018-09-26T11:26:49.929Z,1.53
2018-09-26T11:30:53.600Z,1.70
2018-09-26T11:34:57.401Z,2.27
2018-09-26T11:39:01.136Z,1.60
2018-09-26T11:43:04.848Z,1.80
2018-09-26T11:47:08.490Z,1.50
2018-09-26T11:51:12.153Z,1.67
2018-09-26T11:55:15.772Z,1.60
2018-09-26T11:59:19.437Z,1.90
2018-09-26T12:03:23.108Z,1.87
2018-09-26T12:07:26.822Z,1.17
2018-09-26T12:11:30.494Z,1.30
2018-09-26T12:15:34.183Z,1.57
2018-09-26T12:19:37.864Z,1.33
2018-09-26T12:23:41.632Z,1.50
2018-09-26T12:27:45.348Z,1.73
2018-09-26T12:31:49.175Z,1.37
2018-09-26T12:35:52.807Z,1.40
2018-09-26T12:39:56.507Z,1.67
2018-09-26T12:44:00.192Z,1.90
2018-09-26T12:48:03.895Z,2.00
2018-09-26T12:52:07.657Z,1.67
2018-09-26T12:56:11.348Z,1.70
2018-09-26T13:00:15.180Z,1.80
2018-09-26T13:04:18.958Z,1.70
2018-09-26T13:08:22.575Z,1.90
2018-09-26T13:12:26.424Z,1.53
2018-09-26T13:16:29.928Z,1.90
2018-09-26T13:20:33.597Z,1.60
2018-09-26T13:24:37.246Z,1.60
2018-09-26T13:28:40.924Z,2.10
2018-09-26T13:32:44.608Z,2.00
2018-09-26T13:36:48.248Z,1.10
2018-09-26T13:40:51.940Z,9.23
2018-09-26T13:44:55.598Z,1.77
2018-09-26T13:48:59.252Z,1.47
2018-09-26T13:53:02.905Z,1.73
2018-09-26T13:57:06.588Z,1.50
2018-09-26T14:01:10.358Z,1.90
2018-09-26T14:05:14.073Z,1.73
2018-09-26T14:09:17.728Z,1.53
2018-09-26T14:13:21.430Z,1.60
2018-09-26T14:17:25.136Z,1.60
2018-09-26T14:21:37.674Z,1.30
2018-09-26T14:25:41.602Z,1.70
2018-09-26T14:29:45.518Z,1.20
2018-09-26T14:33:49.597Z,1.70
2018-09-26T14:37:53.445Z,2.00
2018-09-26T14:41:57.310Z,1.47
2018-09-26T14:46:01.362Z,1.60
2018-09-26T14:50:05.446Z,1.50
2018-09-26T14:54:09.361Z,1.50
2018-09-26T14:58:13.399Z,1.43
2018-09-26T15:02:17.225Z,1.90
2018-09-26T15:06:21.153Z,1.47
2018-09-26T15:10:25.299Z,1.73
2018-09-26T15:14:29.007Z,1.80
2018-09-26T15:18:32.917Z,2.00
2018-09-26T15:22:36.868Z,1.70
2018-09-26T15:26:40.779Z,1.97
2018-09-26T15:30:44.709Z,1.83
2018-09-26T15:34:48.636Z,1.63
2018-09-26T15:38:52.479Z,2.37
2018-09-26T15:42:56.390Z,2.23
2018-09-26T15:47:00.284Z,2.13
2018-09-26T15:51:04.226Z,1.57
2018-09-26T15:55:08.112Z,1.60
2018-09-26T15:59:12.018Z,1.80
2018-09-26T16:03:15.826Z,1.47
2018-09-26T16:07:19.516Z,1.77
2018-09-26T16:11:23.249Z,1.40
2018-09-26T16:15:26.868Z,2.10
2018-09-26T16:19:30.539Z,2.27
2018-09-26T16:23:34.183Z,1.60
2018-09-26T16:27:37.857Z,1.90
2018-09-26T16:31:41.666Z,5.70
2018-09-26T16:35:45.377Z,1.90
2018-09-26T16:44:21.477Z,1.77
2018-09-26T16:48:37.803Z,1.50
2018-09-26T16:52:41.466Z,1.53
2018-09-26T16:56:45.139Z,1.87
2018-09-26T17:00:49.002Z,1.60
2018-09-26T17:04:52.658Z,1.77
2018-09-26T17:08:56.461Z,1.57
2018-09-26T17:13:00.128Z,2.30
2018-09-26T17:17:03.841Z,1.53
2018-09-26T17:21:07.612Z,2.43
2018-09-26T17:25:11.267Z,1.77
2018-09-26T17:29:14.930Z,2.60
2018-09-26T17:33:18.639Z,2.03
2018-09-26T17:37:22.300Z,1.90
2018-09-26T17:41:25.968Z,1.80
2018-09-26T17:45:29.675Z,1.77
2018-09-26T17:49:33.336Z,2.37
2018-09-26T17:53:37.312Z,1.90
2018-09-26T17:57:41.020Z,2.23
2018-09-26T18:01:44.684Z,2.00
2018-09-26T18:05:48.351Z,2.27
2018-09-26T18:09:52.047Z,5.47
2018-09-26T18:13:55.708Z,3.33
2018-09-26T18:17:59.491Z,2.57
2018-09-26T18:22:03.120Z,2.50
2018-09-26T18:26:06.799Z,2.33
2018-09-26T18:30:10.461Z,2.10
2018-09-26T18:34:14.155Z,2.43
2018-09-26T18:38:17.816Z,3.00
2018-09-26T18:42:21.480Z,2.30
2018-09-26T18:46:25.171Z,2.30
2018-09-26T18:50:28.836Z,1.97
2018-09-26T18:54:32.531Z,2.10
2018-09-26T18:58:36.210Z,2.37
2018-09-26T19:02:39.840Z,2.80
2018-09-26T19:06:43.496Z,2.50
2018-09-26T19:10:47.164Z,2.23
2018-09-26T19:14:50.849Z,2.17
2018-09-26T19:18:54.513Z,2.33
2018-09-26T19:22:58.148Z,2.40
2018-09-26T19:27:01.863Z,2.40
2018-09-26T19:31:05.560Z,2.40
2018-09-26T19:35:09.351Z,2.50
2018-09-26T19:39:13.052Z,2.30
2018-09-26T19:43:16.664Z,2.70
2018-09-26T19:47:20.329Z,2.27
2018-09-26T19:51:24.037Z,2.90
2018-09-26T19:55:27.710Z,2.00
2018-09-26T19:59:31.470Z,2.67
2018-09-26T20:03:35.089Z,2.60
2018-09-26T20:07:38.738Z,2.47
2018-09-26T20:11:42.841Z,2.60
2018-09-26T20:15:46.504Z,2.63
2018-09-26T20:19:50.149Z,3.13
2018-09-26T20:23:53.807Z,2.73
2018-09-26T20:27:57.441Z,2.97
2018-09-26T20:32:01.153Z,2.57
2018-09-26T20:36:05.262Z,3.30
2018-09-26T20:40:09.051Z,3.20
2018-09-26T20:44:12.759Z,3.23
2018-09-26T20:48:16.376Z,3.17
2018-09-26T20:52:20.057Z,3.33
2018-09-26T20:56:23.740Z,3.43
2018-09-26T21:00:27.533Z,2.97
2018-09-26T21:04:31.220Z,2.93
2018-09-26T21:08:34.847Z,3.70
2018-09-26T21:12:38.553Z,3.47
2018-09-26T21:16:42.196Z,3.67
2018-09-26T21:20:45.878Z,3.03
2018-09-26T21:24:49.540Z,3.00
2018-09-26T21:28:53.307Z,3.43
2018-09-26T21:32:57.081Z,3.80
2018-09-26T21:37:00.748Z,3.43
2018-09-26T21:41:04.419Z,3.33
2018-09-26T21:45:08.172Z,3.43
2018-09-26T21:49:11.825Z,3.03
2018-09-26T21:53:15.479Z,4.03
2018-09-26T21:57:19.132Z,3.53
2018-09-26T22:01:22.848Z,2.90
2018-09-26T22:05:26.552Z,3.43
2018-09-26T22:09:30.305Z,3.20
2018-09-26T22:13:33.940Z,3.50
2018-09-26T22:17:37.762Z,3.10
2018-09-26T22:21:41.464Z,3.73
2018-09-26T22:25:45.140Z,3.33
2018-09-26T22:29:48.808Z,3.70
2018-09-26T22:33:52.505Z,3.40
2018-09-26T22:37:56.172Z,3.50
2018-09-26T22:41:59.838Z,3.57
2018-09-26T22:46:03.499Z,2.80
2018-09-26T22:50:07.184Z,3.03
2018-09-26T22:54:10.811Z,3.20
2018-09-26T22:58:14.540Z,3.43
2018-09-26T23:02:18.203Z,3.30
2018-09-26T23:06:21.963Z,3.00
2018-09-26T23:10:25.680Z,3.80
2018-09-26T23:14:29.308Z,2.73
2018-09-26T23:18:32.976Z,3.13
2018-09-26T23:22:36.768Z,3.60
2018-09-26T23:26:40.432Z,3.07
2018-09-26T23:30:44.201Z,3.17
2018-09-26T23:34:47.869Z,3.83
2018-09-26T23:38:51.724Z,3.50
2018-09-26T23:42:55.469Z,3.20
2018-09-26T23:46:59.154Z,3.50
2018-09-26T23:51:02.824Z,3.27
2018-09-26T23:55:06.484Z,3.80
2018-09-26T23:59:10.165Z,4.00
